Главная страница
METAR-TAF:

METAR-TAF

Аэропорты :

Тунис-Карфаген

Тунис, Тунис

широта: 36-50N, долгота: 010-14E, высота над уровнем моря: 3 м

Текущие метеонаблюдения

Эта сводка был подготовлена 19 минут назад, в 01:30 UTC
Ветер 9 Узел от западный
Температура 26°C
Влажность 70%
Давление 1013 hPa
Видимость 10 км и более
небольшая облачность на высоте 2300 фута

METAR: DTTA 150130Z 28009KT 9999 FEW023 26/20 Q1013 NOSIG

Время: 02:49 (01:49 UTC)

Прогноз

Эта сводка был подготовлена 2 часа и 9 минут назад, в 23:40 UTC
Прогноз действительный с 15-го 00 UTC до 15-го 24 UTC
Ветер 10 Узел от западный
Видимость 10 км и более
небольшая облачность на высоте 2600 фута
Вероятность 30% :
временами
С 15-го 10 UTC до 15-го 15 UTC
небольшая облачность на высоте 2600 фута, мощно-кучевые.
небольшая облачность на высоте 3000 фута, Кучево-дождевые.
гроза, небольшой дождь

TAF: DTTA 142340Z 1500/1524 28010KT 9999 FEW026 PROB30 TEMPO 1510/1515 -TSRA FEW026TCU FEW030CB

Метеонаблюдения и прогнозы для более 4000 аэропортов (сводки METAR и TAF).

Имеющиеся станции представлены на карте желтыми и красными точками.

Чтобы увидеть название станции, наведите на нее мышь.

Затем щелкните, чтобы увидеть метеонаблюдения и метеопрогнозы.

Управление картой: чтобы увеличить масштаб, щелкните зеленые кнопки с черным крестиком; чтобы уменьшить масштаб, щелкните зеленую кнопку с тире; для просмотра соседних карт щелкайте зеленые стрелки.


METAR-TAF: